createdAt,value
2018-03-23T00:00:35.852Z,50.58
2018-03-23T00:03:03.281Z,45.72
2018-03-23T00:05:31.496Z,53.45
2018-03-23T00:07:58.917Z,54.85
2018-03-23T00:10:26.428Z,54.92
2018-03-23T00:12:53.860Z,51.05
2018-03-23T00:15:21.288Z,54.40
2018-03-23T00:17:48.708Z,46.80
2018-03-23T00:20:16.933Z,47.30
2018-03-23T00:22:44.396Z,49.00
2018-03-23T00:25:11.828Z,50.40
2018-03-23T00:27:40.016Z,49.42
2018-03-23T00:30:08.212Z,50.30
2018-03-23T00:32:37.225Z,49.17
2018-03-23T00:35:05.432Z,48.97
2018-03-23T00:37:32.851Z,44.10
2018-03-23T00:40:00.382Z,47.30
2018-03-23T00:42:27.798Z,46.85
2018-03-23T00:44:55.316Z,46.80
2018-03-23T00:47:22.784Z,48.25
2018-03-23T00:49:50.256Z,47.10
2018-03-23T00:52:17.726Z,49.90
2018-03-23T00:54:45.296Z,49.72
2018-03-23T00:57:13.467Z,54.95
2018-03-23T00:59:40.940Z,52.58
2018-03-23T01:02:08.419Z,50.00
2018-03-23T01:04:35.892Z,56.85
2018-03-23T01:07:03.341Z,56.28
2018-03-23T01:09:31.568Z,52.75
2018-03-23T01:11:58.995Z,55.33
2018-03-23T01:14:27.184Z,55.88
2018-03-23T01:16:55.375Z,53.22
2018-03-23T01:19:23.587Z,57.17
2018-03-23T01:21:51.012Z,59.33
2018-03-23T01:24:18.427Z,66.57
2018-03-23T01:26:45.855Z,56.65
2018-03-23T01:29:14.076Z,56.58
2018-03-23T01:31:41.524Z,59.15
2018-03-23T01:34:09.743Z,64.00
2018-03-23T01:36:37.155Z,57.85
2018-03-23T01:39:04.672Z,53.85
2018-03-23T01:41:32.104Z,60.70
2018-03-23T01:44:00.320Z,56.85
2018-03-23T01:46:27.800Z,57.53
2018-03-23T01:48:55.227Z,57.20
2018-03-23T01:51:23.458Z,63.80
2018-03-23T01:53:50.933Z,62.17
2018-03-23T01:56:18.391Z,59.33
2018-03-23T01:58:45.812Z,66.05
2018-03-23T02:01:13.336Z,62.25
2018-03-23T02:03:40.786Z,60.60
2018-03-23T02:06:08.985Z,61.88
2018-03-23T02:08:36.407Z,64.30
2018-03-23T02:11:03.860Z,61.40
2018-03-23T02:13:31.296Z,58.42
2018-03-23T02:15:58.748Z,66.18
2018-03-23T02:18:27.468Z,65.37
2018-03-23T02:20:54.900Z,60.35
2018-03-23T02:23:22.317Z,60.95
2018-03-23T02:25:49.776Z,67.15
2018-03-23T02:28:17.191Z,62.42
2018-03-23T02:30:44.624Z,61.92
2018-03-23T02:33:12.227Z,64.93
2018-03-23T02:35:39.767Z,64.57
2018-03-23T02:38:07.214Z,63.13
2018-03-23T02:40:35.405Z,67.90
2018-03-23T02:43:03.608Z,72.22
2018-03-23T02:45:31.068Z,69.18
2018-03-23T02:47:58.543Z,72.62
2018-03-23T02:50:25.972Z,74.32
2018-03-23T02:52:54.179Z,68.95
2018-03-23T02:55:22.384Z,67.80
2018-03-23T02:57:49.851Z,63.35
2018-03-23T03:00:17.337Z,73.72
2018-03-23T03:02:44.818Z,71.37
2018-03-23T03:05:12.295Z,67.80
2018-03-23T03:07:39.836Z,69.57
2018-03-23T03:10:07.260Z,69.40
2018-03-23T03:12:34.771Z,67.60
2018-03-23T03:15:02.184Z,68.95
2018-03-23T03:17:29.709Z,72.28
2018-03-23T03:19:57.127Z,65.90
2018-03-23T03:22:25.320Z,66.20
2018-03-23T03:24:52.845Z,61.72
2018-03-23T03:27:20.267Z,64.82
2018-03-23T03:29:47.754Z,70.40
2018-03-23T03:32:15.116Z,63.22
2018-03-23T03:34:43.309Z,65.93
2018-03-23T03:37:11.500Z,64.12
2018-03-23T03:39:39.706Z,64.05
2018-03-23T03:42:07.134Z,63.83
2018-03-23T03:44:34.657Z,62.22
2018-03-23T03:47:02.088Z,64.53
2018-03-23T03:49:30.268Z,66.80
2018-03-23T03:51:58.464Z,65.93
2018-03-23T03:54:26.650Z,65.43
2018-03-23T03:56:54.844Z,68.03
2018-03-23T03:59:23.051Z,71.75
2018-03-23T04:01:50.521Z,64.68
2018-03-23T04:04:17.944Z,65.25
2018-03-23T04:06:45.368Z,60.22
2018-03-23T04:09:12.788Z,62.22
2018-03-23T04:11:40.988Z,63.58
2018-03-23T04:14:09.171Z,68.07
2018-03-23T04:16:37.381Z,66.93
2018-03-23T04:19:04.860Z,71.10
2018-03-23T04:21:32.333Z,64.47
2018-03-23T04:23:59.747Z,71.47
2018-03-23T04:26:27.180Z,73.35
2018-03-23T04:28:54.655Z,72.45
2018-03-23T04:31:22.100Z,78.12
2018-03-23T04:33:49.525Z,74.75
2018-03-23T04:36:16.957Z,68.00
2018-03-23T04:38:44.416Z,73.87
2018-03-23T04:41:11.884Z,70.62
2018-03-23T04:43:39.387Z,68.40
2018-03-23T04:46:06.828Z,74.90
2018-03-23T04:48:34.284Z,73.93
2018-03-23T04:51:01.763Z,71.97
2018-03-23T04:53:29.187Z,75.40
2018-03-23T04:55:56.620Z,72.62
2018-03-23T04:58:24.039Z,71.70
2018-03-23T05:00:52.232Z,78.32
2018-03-23T05:03:20.423Z,73.30
2018-03-23T05:05:48.608Z,77.20
2018-03-23T05:08:16.799Z,73.87
2018-03-23T05:10:44.284Z,73.07
2018-03-23T05:13:11.776Z,79.12
2018-03-23T05:15:39.267Z,78.45
2018-03-23T05:18:06.696Z,75.72
2018-03-23T05:20:34.116Z,78.75
2018-03-23T05:23:01.544Z,73.25
2018-03-23T05:25:29.000Z,70.80
2018-03-23T05:27:56.473Z,71.90
2018-03-23T05:30:23.949Z,74.05
2018-03-23T05:32:51.415Z,68.15
2018-03-23T05:35:18.837Z,68.30
2018-03-23T05:37:46.260Z,72.65
2018-03-23T05:40:13.717Z,70.00
2018-03-23T05:42:41.165Z,72.55
2018-03-23T05:45:09.352Z,75.30
2018-03-23T05:47:37.543Z,69.05
2018-03-23T05:50:05.032Z,57.90
2018-03-23T05:52:32.504Z,61.42
2018-03-23T05:54:59.969Z,66.62
2018-03-23T05:57:27.394Z,62.25
2018-03-23T05:59:54.845Z,63.72
2018-03-23T06:02:22.276Z,62.22
2018-03-23T06:04:49.692Z,66.47
2018-03-23T06:07:17.211Z,68.70
2018-03-23T06:09:44.640Z,65.00
2018-03-23T06:12:12.160Z,68.18
2018-03-23T06:14:39.576Z,66.35
2018-03-23T06:17:07.012Z,71.00
2018-03-23T06:19:34.430Z,71.75
2018-03-23T06:22:01.934Z,75.93
2018-03-23T06:24:29.400Z,68.87
2018-03-23T06:26:56.827Z,72.43
2018-03-23T06:29:24.257Z,72.85
2018-03-23T06:31:51.675Z,76.20
2018-03-23T06:34:19.859Z,78.43
2018-03-23T06:36:47.279Z,78.50
2018-03-23T06:39:14.699Z,70.45
2018-03-23T06:41:42.212Z,80.28
2018-03-23T06:44:09.628Z,74.97
2018-03-23T06:46:37.142Z,70.65
2018-03-23T06:49:04.557Z,74.43
2018-03-23T06:51:32.088Z,81.97
2018-03-23T06:53:59.508Z,82.28
2018-03-23T06:56:27.032Z,82.72
2018-03-23T06:58:54.448Z,86.47
2018-03-23T07:01:21.967Z,78.60
2018-03-23T07:03:49.388Z,75.65
2018-03-23T07:06:16.909Z,79.50
2018-03-23T07:08:44.375Z,75.82
2018-03-23T07:11:11.848Z,80.18
2018-03-23T07:13:39.274Z,83.65
2018-03-23T07:16:06.788Z,78.07
2018-03-23T07:18:34.212Z,75.03
2018-03-23T07:21:01.648Z,78.15
2018-03-23T07:23:29.072Z,79.25
2018-03-23T07:25:57.272Z,79.87
2018-03-23T07:28:25.445Z,81.45
2018-03-23T07:30:53.637Z,83.12
2018-03-23T07:33:21.104Z,82.47
2018-03-23T07:35:49.307Z,79.37
2018-03-23T07:38:16.740Z,80.28
2018-03-23T07:40:44.179Z,81.53
2018-03-23T07:43:11.728Z,75.12
2018-03-23T07:45:39.152Z,77.45
2018-03-23T07:48:06.828Z,69.95
2018-03-23T07:50:35.016Z,78.20
2018-03-23T07:53:02.523Z,78.28
2018-03-23T07:55:29.948Z,72.97
2018-03-23T07:57:57.380Z,79.47
2018-03-23T08:00:24.828Z,73.47
2018-03-23T08:02:52.256Z,74.60
2018-03-23T08:05:19.768Z,65.72
2018-03-23T08:07:47.248Z,71.62
2018-03-23T08:10:14.712Z,73.57
2018-03-23T08:12:42.140Z,75.03
2018-03-23T08:15:09.652Z,76.80
2018-03-23T08:17:37.079Z,74.05
2018-03-23T08:20:04.508Z,73.60
2018-03-23T08:22:31.956Z,79.50
2018-03-23T08:24:59.847Z,76.28
2018-03-23T08:27:27.312Z,76.45
2018-03-23T08:29:54.727Z,70.93
2018-03-23T08:32:22.256Z,79.05
2018-03-23T08:34:49.716Z,70.90
2018-03-23T08:37:17.139Z,72.20
2018-03-23T08:39:44.660Z,74.75
2018-03-23T08:42:12.088Z,71.12
2018-03-23T08:44:39.510Z,67.82
2018-03-23T08:47:06.944Z,75.47
2018-03-23T08:49:35.132Z,74.28
2018-03-23T08:52:03.338Z,75.60
2018-03-23T08:54:30.769Z,77.03
2018-03-23T08:56:58.192Z,73.00
2018-03-23T08:59:25.617Z,70.05
2018-03-23T09:01:53.808Z,74.47
2018-03-23T09:04:22.024Z,77.00
2018-03-23T09:06:49.447Z,81.35
2018-03-23T09:09:16.965Z,80.25
2018-03-23T09:11:44.432Z,86.82
2018-03-23T09:14:11.855Z,80.40
2018-03-23T09:16:39.420Z,76.50
2018-03-23T09:19:06.800Z,74.07
2018-03-23T09:21:34.217Z,76.03
2018-03-23T09:24:01.651Z,79.40
2018-03-23T09:26:29.868Z,72.85
2018-03-23T09:28:57.300Z,75.25
2018-03-23T09:31:25.490Z,75.85
2018-03-23T09:33:53.684Z,81.43
2018-03-23T09:36:21.900Z,72.53
2018-03-23T09:38:49.320Z,76.10
2018-03-23T09:41:16.736Z,76.53
2018-03-23T09:43:44.173Z,73.35
2018-03-23T09:46:12.592Z,68.60
2018-03-23T09:48:40.081Z,72.60
2018-03-23T09:51:07.529Z,69.43
2018-03-23T09:53:35.004Z,70.90
2018-03-23T09:56:02.487Z,76.53
2018-03-23T09:58:29.916Z,75.78
2018-03-23T10:00:58.104Z,78.18
2018-03-23T10:03:26.298Z,75.60
2018-03-23T10:05:54.476Z,76.95
2018-03-23T10:08:22.720Z,79.10
2018-03-23T10:10:50.917Z,78.95
2018-03-23T10:13:18.365Z,69.50
2018-03-23T10:15:45.820Z,70.57
2018-03-23T10:18:13.248Z,75.37
2018-03-23T10:20:40.669Z,71.37
2018-03-23T10:23:08.148Z,71.15
2018-03-23T10:25:35.592Z,67.12
2018-03-23T10:28:03.069Z,69.78
2018-03-23T10:30:30.536Z,66.60
2018-03-23T10:32:57.999Z,60.15
2018-03-23T10:35:25.479Z,62.47
2018-03-23T10:37:52.856Z,68.28
2018-03-23T10:40:20.288Z,66.18
2018-03-23T10:42:48.492Z,67.93
2018-03-23T10:45:15.968Z,64.03
2018-03-23T10:47:43.398Z,57.85
2018-03-23T10:50:11.629Z,57.03
2018-03-23T10:52:39.061Z,57.97
2018-03-23T10:55:07.240Z,61.03
2018-03-23T10:57:35.463Z,55.45
2018-03-23T11:00:02.884Z,54.05
2018-03-23T11:02:45.148Z,60.67
2018-03-23T11:05:12.568Z,53.30
2018-03-23T11:07:39.996Z,55.65
2018-03-23T11:10:07.457Z,57.80
2018-03-23T11:12:34.880Z,59.15
2018-03-23T11:15:02.439Z,53.40
2018-03-23T11:17:29.799Z,52.60
2018-03-23T11:19:57.340Z,58.95
2018-03-23T11:22:24.757Z,57.90
2018-03-23T11:24:52.280Z,51.08
2018-03-23T11:27:19.747Z,51.65
2018-03-23T11:29:47.216Z,54.17
2018-03-23T11:32:14.689Z,48.72
2018-03-23T11:34:42.124Z,46.20
2018-03-23T11:37:10.316Z,49.00
2018-03-23T11:39:38.508Z,48.13
2018-03-23T11:42:06.692Z,49.30
2018-03-23T11:44:34.888Z,41.03
2018-03-23T11:47:03.064Z,52.53
2018-03-23T11:49:31.256Z,48.00
2018-03-23T11:51:59.439Z,49.17
2018-03-23T11:54:27.640Z,44.88
2018-03-23T11:56:55.120Z,43.55
2018-03-23T11:59:22.544Z,41.33
2018-03-23T12:01:50.060Z,41.13
2018-03-23T12:04:17.528Z,47.55
2018-03-23T12:06:45.004Z,39.47
2018-03-23T12:09:12.476Z,42.65
2018-03-23T12:11:39.891Z,50.50
2018-03-23T12:14:07.404Z,41.20
2018-03-23T12:16:34.876Z,72.07
2018-03-23T12:19:02.312Z,44.05
2018-03-23T12:21:29.741Z,42.97
2018-03-23T12:23:57.194Z,42.22
2018-03-23T12:26:24.604Z,39.55
2018-03-23T12:28:52.128Z,39.05
2018-03-23T12:31:19.601Z,38.50
2018-03-23T12:33:47.068Z,35.72
2018-03-23T12:36:14.488Z,38.75
2018-03-23T12:38:41.921Z,37.40
2018-03-23T12:41:09.341Z,40.10
2018-03-23T12:43:37.583Z,35.78
2018-03-23T12:46:05.088Z,36.42
2018-03-23T12:48:32.600Z,34.50
2018-03-23T12:51:00.115Z,38.08
2018-03-23T12:53:27.495Z,36.58
2018-03-23T12:55:54.920Z,37.05
2018-03-23T12:58:22.348Z,38.00
2018-03-23T13:00:50.569Z,37.75
2018-03-23T13:03:17.984Z,37.60
2018-03-23T13:05:45.513Z,35.45
2018-03-23T13:08:12.978Z,35.00
2018-03-23T13:10:40.388Z,34.00
2018-03-23T13:13:07.812Z,34.53
2018-03-23T13:15:35.240Z,33.20
2018-03-23T13:18:02.664Z,29.05
2018-03-23T13:20:30.123Z,34.50
2018-03-23T13:22:57.591Z,33.30
2018-03-23T13:25:25.027Z,29.87
2018-03-23T13:27:52.440Z,28.23
2018-03-23T13:30:19.906Z,31.02
2018-03-23T13:32:48.060Z,28.70
2018-03-23T13:35:16.255Z,28.12
2018-03-23T13:37:44.441Z,29.80
2018-03-23T13:40:12.635Z,28.10
2018-03-23T13:42:40.052Z,29.50
2018-03-23T13:45:07.480Z,27.58
2018-03-23T13:47:34.952Z,32.15
2018-03-23T13:50:02.496Z,30.23
2018-03-23T13:52:29.844Z,31.10
2018-03-23T13:54:58.800Z,30.30
2018-03-23T13:57:26.220Z,36.25
2018-03-23T13:59:59.780Z,37.35
2018-03-23T14:02:27.212Z,35.22
2018-03-23T14:04:54.736Z,31.35
2018-03-23T14:07:22.159Z,32.88
2018-03-23T14:09:50.356Z,34.08
2018-03-23T14:12:18.544Z,34.25
2018-03-23T14:14:46.753Z,34.47
2018-03-23T14:17:14.216Z,36.42
2018-03-23T14:19:41.658Z,39.38
2018-03-23T14:22:09.872Z,39.70
2018-03-23T14:24:37.300Z,42.17
2018-03-23T14:27:04.716Z,37.67
2018-03-23T14:29:32.152Z,38.17
2018-03-23T14:32:00.368Z,40.47
2018-03-23T14:34:27.840Z,40.00
2018-03-23T14:36:55.314Z,39.17
2018-03-23T14:39:22.781Z,39.45
2018-03-23T14:41:50.200Z,37.50
2018-03-23T14:44:17.627Z,33.60
2018-03-23T14:46:45.043Z,33.53
2018-03-23T14:49:13.244Z,33.33
2018-03-23T14:51:41.459Z,34.13
2018-03-23T14:54:08.896Z,38.65
2018-03-23T14:56:36.320Z,38.50
2018-03-23T14:59:20.672Z,32.80
2018-03-23T15:01:48.092Z,34.47
2018-03-23T15:04:15.524Z,36.53
2018-03-23T15:06:42.940Z,34.65
2018-03-23T15:09:11.139Z,37.28
2018-03-23T15:11:39.353Z,36.63
2018-03-23T15:14:15.840Z,37.33
2018-03-23T15:16:43.265Z,36.45
2018-03-23T15:19:11.464Z,32.90
2018-03-23T15:21:38.984Z,33.60
2018-03-23T15:24:06.425Z,33.97
2018-03-23T15:26:33.895Z,36.50
2018-03-23T15:29:01.500Z,33.55
2018-03-23T15:31:28.932Z,35.17
2018-03-23T15:33:56.358Z,37.63
2018-03-23T15:36:23.877Z,35.35
2018-03-23T15:38:51.340Z,41.47
2018-03-23T15:41:18.817Z,36.22
2018-03-23T15:43:46.316Z,34.00
2018-03-23T15:46:13.759Z,37.75
2018-03-23T15:48:41.184Z,36.25
2018-03-23T15:51:09.385Z,39.20
2018-03-23T15:53:37.565Z,32.70
2018-03-23T15:56:05.759Z,39.78
2018-03-23T15:58:33.942Z,41.17
2018-03-23T16:01:02.139Z,41.60
2018-03-23T16:03:30.324Z,37.80
2018-03-23T16:05:58.544Z,38.45
2018-03-23T16:08:25.960Z,37.80
2018-03-23T16:10:53.476Z,36.72
2018-03-23T16:13:20.921Z,38.53
2018-03-23T16:15:48.436Z,38.55
2018-03-23T16:18:15.860Z,35.53
2018-03-23T16:20:44.052Z,37.63
2018-03-23T16:23:11.484Z,37.55
2018-03-23T16:25:38.932Z,34.85
2018-03-23T16:28:06.355Z,38.42
2018-03-23T16:30:34.567Z,37.28
2018-03-23T16:33:02.098Z,32.53
2018-03-23T16:35:30.327Z,36.30
2018-03-23T16:37:57.791Z,35.92
2018-03-23T16:40:25.231Z,36.42
2018-03-23T16:42:53.487Z,34.90
2018-03-23T16:45:21.641Z,38.67
2018-03-23T16:47:49.055Z,37.50
2018-03-23T16:50:16.581Z,33.08
2018-03-23T16:52:43.991Z,34.83
2018-03-23T16:55:11.516Z,37.55
2018-03-23T16:57:38.935Z,34.08
2018-03-23T17:00:06.368Z,35.55
2018-03-23T17:02:33.788Z,36.30
2018-03-23T17:05:02.020Z,34.35
2018-03-23T17:07:29.436Z,37.45
2018-03-23T17:09:57.667Z,34.45
2018-03-23T17:12:25.132Z,36.42
2018-03-23T17:14:52.564Z,38.15
2018-03-23T17:17:19.980Z,34.85
2018-03-23T17:19:47.444Z,35.22
2018-03-23T17:22:14.948Z,35.75
2018-03-23T17:24:42.335Z,34.00
2018-03-23T17:27:09.764Z,36.53
2018-03-23T17:29:37.187Z,39.28
2018-03-23T17:32:05.400Z,33.53
2018-03-23T17:34:33.564Z,33.92
2018-03-23T17:37:01.760Z,40.10
2018-03-23T17:39:29.944Z,36.78
2018-03-23T17:41:58.152Z,39.47
2018-03-23T17:44:25.635Z,38.65
2018-03-23T17:46:53.052Z,37.05
2018-03-23T17:49:20.475Z,36.03
2018-03-23T17:51:47.895Z,41.15
2018-03-23T17:54:16.116Z,35.97
2018-03-23T17:56:43.543Z,32.78
2018-03-23T17:59:10.964Z,39.88
2018-03-23T18:01:39.254Z,36.33
2018-03-23T18:04:06.720Z,34.60
2018-03-23T18:06:34.144Z,32.95
2018-03-23T18:09:02.337Z,35.33
2018-03-23T18:11:30.524Z,39.78
2018-03-23T18:13:58.747Z,37.00
2018-03-23T18:16:26.220Z,35.88
2018-03-23T18:18:53.684Z,34.58
2018-03-23T18:21:21.116Z,31.02
2018-03-23T18:23:48.596Z,32.63
2018-03-23T18:26:16.821Z,33.35
2018-03-23T18:28:44.240Z,30.65
2018-03-23T18:31:12.836Z,36.45
2018-03-23T18:33:41.024Z,30.77
2018-03-23T18:36:09.215Z,33.40
2018-03-23T18:38:37.410Z,35.08
2018-03-23T18:41:05.627Z,35.45
2018-03-23T18:43:33.115Z,34.33
2018-03-23T18:46:00.564Z,33.92
2018-03-23T18:48:28.036Z,32.92
2018-03-23T18:50:55.504Z,35.13
2018-03-23T18:53:22.919Z,34.55
2018-03-23T18:55:50.344Z,37.40
2018-03-23T18:58:17.768Z,37.03
2018-03-23T19:00:45.191Z,33.08
2018-03-23T19:03:12.856Z,39.03
2018-03-23T19:05:40.324Z,39.97
2018-03-23T19:08:07.749Z,41.60
2018-03-23T19:10:35.264Z,36.10
2018-03-23T19:13:02.692Z,37.55
2018-03-23T19:15:30.272Z,37.95
2018-03-23T19:17:57.668Z,32.33
2018-03-23T19:20:25.100Z,34.70
2018-03-23T19:22:52.620Z,36.38
2018-03-23T19:25:20.047Z,34.70
2018-03-23T19:27:48.268Z,38.97
2018-03-23T19:30:15.745Z,40.00
2018-03-23T19:32:43.172Z,39.35
2018-03-23T19:35:11.356Z,37.80
2018-03-23T19:37:38.780Z,40.30
2018-03-23T19:40:06.229Z,37.30
2018-03-23T19:42:33.706Z,36.00
2018-03-23T19:45:01.119Z,34.17
2018-03-23T19:47:28.636Z,34.67
2018-03-23T19:49:56.056Z,36.17
2018-03-23T19:52:23.580Z,32.75
2018-03-23T19:54:51.056Z,33.40
2018-03-23T19:57:18.573Z,35.85
2018-03-23T19:59:45.950Z,29.90
2018-03-23T20:02:13.465Z,36.05
2018-03-23T20:04:40.932Z,36.30
2018-03-23T20:07:08.367Z,34.22
2018-03-23T20:09:35.788Z,41.70
2018-03-23T20:12:03.236Z,38.22
2018-03-23T20:14:30.657Z,37.40
2018-03-23T20:16:59.618Z,46.55
2018-03-23T20:19:27.085Z,35.70
2018-03-23T20:21:54.508Z,36.42
2018-03-23T20:24:27.672Z,35.63
2018-03-23T20:26:55.099Z,33.55
2018-03-23T20:29:23.283Z,37.47
2018-03-23T20:31:57.328Z,37.83
2018-03-23T20:34:25.508Z,36.72
2018-03-23T20:36:53.708Z,35.28
2018-03-23T20:39:21.179Z,35.58
2018-03-23T20:41:48.644Z,38.38
2018-03-23T20:44:16.059Z,31.45
2018-03-23T20:46:43.493Z,34.72
2018-03-23T20:49:10.916Z,34.55
2018-03-23T20:51:39.148Z,39.90
2018-03-23T20:54:06.572Z,36.78
2018-03-23T20:56:34.076Z,37.40
2018-03-23T20:59:01.504Z,37.60
2018-03-23T21:01:29.022Z,35.05
2018-03-23T21:03:56.444Z,35.00
2018-03-23T21:06:23.960Z,33.15
2018-03-23T21:08:51.380Z,37.33
2018-03-23T21:11:18.808Z,33.15
2018-03-23T21:13:46.268Z,31.52
2018-03-23T21:16:13.698Z,33.30
2018-03-23T21:18:41.111Z,32.35
2018-03-23T21:21:08.584Z,32.20
2018-03-23T21:23:35.995Z,30.37
2018-03-23T21:26:03.512Z,34.25
2018-03-23T21:28:30.986Z,40.12
2018-03-23T21:30:58.465Z,36.00
2018-03-23T21:33:25.884Z,30.98
2018-03-23T21:35:53.307Z,35.58
2018-03-23T21:38:20.772Z,34.17
2018-03-23T21:40:48.196Z,35.88
2018-03-23T21:43:16.398Z,35.10
2018-03-23T21:45:44.576Z,36.92
2018-03-23T21:48:12.797Z,33.13
2018-03-23T21:50:40.273Z,32.92
2018-03-23T21:53:07.684Z,36.75
2018-03-23T21:55:35.172Z,34.90
2018-03-23T21:58:03.385Z,32.50
2018-03-23T22:00:30.808Z,35.70
2018-03-23T22:02:58.237Z,37.72
2018-03-23T22:05:25.697Z,36.65
2018-03-23T22:07:53.166Z,38.20
2018-03-23T22:10:20.589Z,38.53
2018-03-23T22:12:48.107Z,34.78
2018-03-23T22:15:15.527Z,34.38
2018-03-23T22:17:43.044Z,34.13
2018-03-23T22:20:10.471Z,43.28
2018-03-23T22:22:37.983Z,50.53
2018-03-23T22:25:05.399Z,51.15
2018-03-23T22:27:32.827Z,38.63
2018-03-23T22:30:00.263Z,40.40
2018-03-23T22:32:27.767Z,37.75
2018-03-23T22:34:55.180Z,37.50
2018-03-23T22:37:22.612Z,35.10
2018-03-23T22:39:50.027Z,36.90
2018-03-23T22:42:17.464Z,37.05
2018-03-23T22:44:44.912Z,38.30
2018-03-23T22:47:12.336Z,35.17
2018-03-23T22:49:39.756Z,31.87
2018-03-23T22:52:07.211Z,34.67
2018-03-23T22:54:34.632Z,33.38
2018-03-23T22:57:02.157Z,35.00
2018-03-23T22:59:29.623Z,39.80
2018-03-23T23:01:57.816Z,34.30
2018-03-23T23:04:25.259Z,37.13
2018-03-23T23:06:52.752Z,34.80
2018-03-23T23:09:20.224Z,37.72
2018-03-23T23:11:47.651Z,39.10
2018-03-23T23:14:15.071Z,41.05
2018-03-23T23:16:42.532Z,45.30
2018-03-23T23:19:09.950Z,41.28
2018-03-23T23:21:38.879Z,48.45
2018-03-23T23:24:07.089Z,35.03
2018-03-23T23:26:34.520Z,35.75
2018-03-23T23:29:02.708Z,33.00
2018-03-23T23:31:30.929Z,31.55
2018-03-23T23:33:58.350Z,29.95
2018-03-23T23:36:25.871Z,31.42
2018-03-23T23:38:53.288Z,32.58
2018-03-23T23:41:20.811Z,34.47
2018-03-23T23:43:48.232Z,32.08
2018-03-23T23:46:15.749Z,30.40
2018-03-23T23:48:43.176Z,32.47
2018-03-23T23:51:11.365Z,34.13
2018-03-23T23:53:38.872Z,34.38
2018-03-23T23:56:06.296Z,27.75
2018-03-23T23:58:33.720Z,33.80
